createdAt,value
2023-04-15T00:02:19.466Z,7.74
2023-04-15T00:04:45.798Z,8.05
2023-04-15T00:07:12.167Z,7.89
2023-04-15T00:09:38.388Z,7.30
2023-04-15T00:12:04.639Z,7.42
2023-04-15T00:14:30.881Z,7.52
2023-04-15T00:16:57.222Z,7.51
2023-04-15T00:19:23.554Z,7.08
2023-04-15T00:21:49.812Z,6.65
2023-04-15T00:24:16.033Z,6.45
2023-04-15T00:26:42.250Z,6.66
2023-04-15T00:29:08.542Z,6.99
2023-04-15T00:31:34.805Z,6.85
2023-04-15T00:34:01.065Z,6.70
2023-04-15T00:36:27.309Z,6.82
2023-04-15T00:38:53.558Z,6.66
2023-04-15T00:41:19.823Z,6.51
2023-04-15T00:43:46.113Z,6.97
2023-04-15T00:46:12.414Z,7.10
2023-04-15T00:48:38.669Z,7.27
2023-04-15T00:51:04.913Z,7.52
2023-04-15T00:53:31.147Z,7.78
2023-04-15T00:55:57.430Z,7.94
2023-04-15T00:58:23.731Z,8.21
2023-04-15T01:00:49.984Z,8.24
2023-04-15T01:03:16.403Z,8.32
2023-04-15T01:05:42.811Z,8.12
2023-04-15T01:08:09.073Z,8.22
2023-04-15T01:10:35.365Z,7.84
2023-04-15T01:13:01.597Z,7.34
2023-04-15T01:15:27.836Z,7.79
2023-04-15T01:20:42.977Z,7.88
2023-04-15T01:23:09.207Z,7.46
2023-04-15T01:25:35.459Z,7.27
2023-04-15T01:28:01.720Z,7.60
2023-04-15T01:30:27.954Z,7.69
2023-04-15T01:32:54.263Z,7.78
2023-04-15T01:35:20.538Z,7.81
2023-04-15T01:37:46.782Z,7.83
2023-04-15T01:40:13.012Z,7.92
2023-04-15T01:42:39.254Z,8.04
2023-04-15T01:45:05.584Z,7.95
2023-04-15T01:47:31.827Z,7.66
2023-04-15T01:49:58.105Z,7.72
2023-04-15T01:52:24.329Z,7.93
2023-04-15T01:54:50.615Z,8.07
2023-04-15T01:57:16.863Z,7.95
2023-04-15T01:59:43.120Z,7.66
2023-04-15T02:02:09.445Z,7.85
2023-04-15T02:04:35.685Z,7.95
2023-04-15T02:07:01.910Z,7.63
2023-04-15T02:09:28.163Z,7.29
2023-04-15T02:11:54.421Z,7.56
2023-04-15T02:14:20.670Z,7.87
2023-04-15T02:16:46.912Z,8.02
2023-04-15T02:19:13.181Z,8.16
2023-04-15T02:21:39.396Z,8.13
2023-04-15T02:24:05.682Z,8.17
2023-04-15T02:26:31.968Z,8.09
2023-04-15T02:28:58.401Z,8.14
2023-04-15T02:31:24.771Z,8.18
2023-04-15T02:33:52.620Z,8.10
2023-04-15T02:36:18.876Z,7.99
2023-04-15T02:38:45.097Z,8.14
2023-04-15T02:41:11.316Z,8.20
2023-04-15T02:43:37.541Z,8.20
2023-04-15T02:46:03.791Z,8.36
2023-04-15T02:48:30.072Z,8.15
2023-04-15T02:50:56.319Z,7.96
2023-04-15T02:53:22.548Z,8.14
2023-04-15T02:55:48.772Z,7.99
2023-04-15T02:58:15.005Z,8.06
2023-04-15T03:00:41.241Z,7.89
2023-04-15T03:03:07.633Z,8.18
2023-04-15T03:05:33.967Z,7.90
2023-04-15T03:08:00.202Z,8.00
2023-04-15T03:10:26.538Z,8.08
2023-04-15T03:12:52.821Z,8.10
2023-04-15T03:15:19.075Z,8.16
2023-04-15T03:17:45.356Z,8.19
2023-04-15T03:20:11.701Z,8.10
2023-04-15T03:22:38.043Z,8.16
2023-04-15T03:25:04.337Z,8.11
2023-04-15T03:27:30.578Z,8.13
2023-04-15T03:29:56.895Z,7.76
2023-04-15T03:32:23.199Z,7.88
2023-04-15T03:34:49.455Z,7.82
2023-04-15T03:37:15.811Z,7.87
2023-04-15T03:39:42.069Z,7.93
2023-04-15T03:42:08.320Z,7.96
2023-04-15T03:44:34.559Z,7.96
2023-04-15T03:47:00.801Z,7.99
2023-04-15T03:49:27.113Z,8.09
2023-04-15T03:51:53.421Z,8.02
2023-04-15T03:54:19.637Z,8.04
2023-04-15T03:56:45.907Z,8.04
2023-04-15T03:59:12.150Z,8.12
2023-04-15T04:01:38.460Z,7.97
2023-04-15T04:04:04.871Z,7.99
2023-04-15T04:06:31.152Z,7.99
2023-04-15T04:08:57.373Z,7.56
2023-04-15T04:11:23.608Z,7.05
2023-04-15T04:13:49.890Z,6.82
2023-04-15T04:16:16.237Z,7.51
2023-04-15T04:18:42.535Z,7.49
2023-04-15T04:21:08.818Z,7.23
2023-04-15T04:23:35.053Z,7.14
2023-04-15T04:26:01.297Z,7.17
2023-04-15T04:28:27.545Z,7.52
2023-04-15T04:30:53.802Z,7.23
2023-04-15T04:33:20.025Z,7.40
2023-04-15T04:35:46.278Z,7.44
2023-04-15T04:38:12.553Z,7.33
2023-04-15T04:40:38.784Z,7.53
2023-04-15T04:43:05.012Z,7.71
2023-04-15T04:45:31.262Z,7.67
2023-04-15T04:47:57.545Z,7.77
2023-04-15T04:50:23.837Z,7.77
2023-04-15T04:52:50.076Z,7.50
2023-04-15T04:55:16.302Z,7.64
2023-04-15T04:57:42.544Z,7.66
2023-04-15T05:00:08.812Z,7.71
2023-04-15T05:02:35.211Z,7.76
2023-04-15T05:05:01.577Z,7.75
2023-04-15T05:07:27.840Z,7.78
2023-04-15T05:09:54.075Z,7.65
2023-04-15T05:12:20.390Z,7.66
2023-04-15T05:14:46.713Z,7.70
2023-04-15T05:17:12.969Z,7.75
2023-04-15T05:19:39.255Z,7.67
2023-04-15T05:22:05.550Z,7.77
2023-04-15T05:24:31.783Z,7.28
2023-04-15T05:26:58.079Z,7.49
2023-04-15T05:29:25.571Z,7.42
2023-04-15T05:31:51.826Z,7.10
2023-04-15T05:34:18.130Z,7.33
2023-04-15T05:36:44.371Z,7.50
2023-04-15T05:39:10.656Z,7.69
2023-04-15T05:41:36.967Z,7.49
2023-04-15T05:44:03.222Z,7.72
2023-04-15T05:46:29.561Z,7.55
2023-04-15T05:48:56.604Z,7.43
2023-04-15T05:51:23.086Z,7.27
2023-04-15T05:53:49.333Z,6.92
2023-04-15T05:56:15.623Z,6.72
2023-04-15T05:58:41.894Z,6.62
2023-04-15T06:01:08.188Z,6.83
2023-04-15T06:03:34.554Z,6.94
2023-04-15T06:06:00.896Z,6.46
2023-04-15T06:08:27.157Z,6.71
2023-04-15T06:10:53.502Z,6.73
2023-04-15T06:13:19.739Z,6.76
2023-04-15T06:15:46.015Z,7.01
2023-04-15T06:18:12.331Z,6.27
2023-04-15T06:20:38.585Z,6.67
2023-04-15T06:23:04.827Z,7.00
2023-04-15T06:25:31.105Z,7.44
2023-04-15T06:27:57.440Z,7.09
2023-04-15T06:30:24.455Z,6.64
2023-04-15T06:32:50.857Z,6.35
2023-04-15T06:35:17.095Z,6.72
2023-04-15T06:37:43.325Z,6.61
2023-04-15T06:40:09.590Z,6.59
2023-04-15T06:42:35.922Z,5.85
2023-04-15T06:45:02.203Z,5.81
2023-04-15T06:47:28.684Z,5.51
2023-04-15T06:49:54.963Z,5.75
2023-04-15T06:52:21.221Z,6.35
2023-04-15T06:54:47.484Z,7.00
2023-04-15T06:57:13.749Z,6.88
2023-04-15T06:59:39.974Z,6.89
2023-04-15T07:02:06.284Z,6.71
2023-04-15T07:04:32.648Z,6.25
2023-04-15T07:06:58.941Z,6.98
2023-04-15T07:09:25.163Z,6.99
2023-04-15T07:11:51.408Z,7.06
2023-04-15T07:14:17.714Z,6.73
2023-04-15T07:16:44.060Z,7.35
2023-04-15T07:19:10.346Z,7.42
2023-04-15T07:21:36.615Z,7.26
2023-04-15T07:24:02.855Z,7.38
2023-04-15T07:26:29.126Z,7.58
2023-04-15T07:28:55.401Z,7.14
2023-04-15T07:31:21.629Z,7.09
2023-04-15T07:33:47.943Z,6.91
2023-04-15T07:36:14.222Z,6.54
2023-04-15T07:38:40.490Z,6.43
2023-04-15T07:41:06.770Z,6.63
2023-04-15T07:43:33.026Z,6.59
2023-04-15T07:45:59.279Z,6.89
2023-04-15T07:48:25.524Z,7.61
2023-04-15T07:50:51.751Z,7.24
2023-04-15T07:53:17.982Z,6.86
2023-04-15T07:55:44.225Z,7.17
2023-04-15T07:58:10.462Z,7.22
2023-04-15T08:00:36.700Z,6.71
2023-04-15T08:03:03.083Z,6.91
2023-04-15T08:05:29.538Z,6.51
2023-04-15T08:07:55.789Z,6.85
2023-04-15T08:10:22.059Z,6.13
2023-04-15T08:12:48.397Z,6.84
2023-04-15T08:15:14.702Z,6.80
2023-04-15T08:17:40.991Z,6.33
2023-04-15T08:20:07.302Z,6.60
2023-04-15T08:22:34.700Z,6.32
2023-04-15T08:25:00.957Z,7.03
2023-04-15T08:27:27.188Z,6.83
2023-04-15T08:29:53.466Z,6.48
2023-04-15T08:32:19.795Z,5.76
2023-04-15T08:34:46.072Z,5.56
2023-04-15T08:37:12.777Z,5.78
2023-04-15T08:39:39.162Z,5.45
2023-04-15T08:42:05.374Z,5.38
2023-04-15T08:44:31.647Z,4.88
2023-04-15T08:46:57.969Z,5.30
2023-04-15T08:49:24.220Z,5.63
2023-04-15T08:51:50.470Z,6.22
2023-04-15T08:54:16.738Z,5.94
2023-04-15T08:56:42.976Z,6.12
2023-04-15T08:59:09.231Z,6.23
2023-04-15T09:01:35.587Z,6.93
2023-04-15T09:04:01.930Z,6.96
2023-04-15T09:06:28.208Z,7.03
2023-04-15T09:08:54.495Z,7.06
2023-04-15T09:11:20.756Z,7.57
2023-04-15T09:13:47.032Z,7.37
2023-04-15T09:16:13.314Z,7.49
2023-04-15T09:18:39.568Z,7.82
2023-04-15T09:21:05.808Z,7.56
2023-04-15T09:23:32.111Z,7.94
2023-04-15T09:25:58.395Z,8.47
2023-04-15T09:28:24.647Z,8.55
2023-04-15T09:30:51.011Z,8.29
2023-04-15T09:33:17.382Z,7.39
2023-04-15T09:35:43.597Z,7.45
2023-04-15T09:38:09.949Z,7.07
2023-04-15T09:40:36.488Z,7.05
2023-04-15T09:43:02.723Z,6.58
2023-04-15T09:45:29.640Z,7.01
2023-04-15T09:47:57.116Z,7.18
2023-04-15T09:50:24.655Z,7.42
2023-04-15T09:52:50.908Z,7.73
2023-04-15T09:55:17.205Z,7.42
2023-04-15T09:57:43.471Z,6.89
2023-04-15T10:00:09.710Z,7.53
2023-04-15T10:02:36.138Z,7.55
2023-04-15T10:05:02.508Z,7.86
2023-04-15T10:07:28.756Z,8.01
2023-04-15T10:09:55.045Z,7.93
2023-04-15T10:12:21.321Z,7.31
2023-04-15T10:14:47.573Z,7.40
2023-04-15T10:17:13.799Z,7.23
2023-04-15T10:19:40.079Z,7.81
2023-04-15T10:22:06.340Z,7.58
2023-04-15T10:24:32.592Z,7.82
2023-04-15T10:26:58.870Z,8.34
2023-04-15T10:29:25.124Z,8.91
2023-04-15T10:31:51.404Z,8.99
2023-04-15T10:34:17.637Z,8.57
2023-04-15T10:36:43.894Z,8.90
2023-04-15T10:39:10.176Z,8.90
2023-04-15T10:41:36.405Z,8.64
2023-04-15T10:44:02.828Z,7.56
2023-04-15T10:46:29.279Z,7.30
2023-04-15T10:48:55.979Z,7.57
2023-04-15T10:51:22.287Z,8.06
2023-04-15T10:53:48.535Z,7.74
2023-04-15T10:56:14.756Z,7.95
2023-04-15T10:58:40.999Z,7.01
2023-04-15T11:01:07.253Z,6.65
2023-04-15T11:03:33.604Z,6.83
2023-04-15T11:05:59.976Z,7.16
2023-04-15T11:08:26.235Z,7.33
2023-04-15T11:10:52.474Z,7.17
2023-04-15T11:13:18.716Z,7.29
2023-04-15T11:15:45.026Z,7.67
2023-04-15T11:18:11.378Z,8.26
2023-04-15T11:20:37.723Z,8.30
2023-04-15T11:23:14.141Z,7.58
2023-04-15T11:25:41.765Z,7.79
2023-04-15T11:28:08.092Z,7.80
2023-04-15T11:30:34.388Z,6.95
2023-04-15T11:33:00.669Z,7.80
2023-04-15T11:35:26.928Z,8.67
2023-04-15T11:37:53.203Z,9.44
2023-04-15T11:40:19.478Z,9.18
2023-04-15T11:42:49.524Z,9.31
2023-04-15T11:45:16.420Z,9.75
2023-04-15T11:47:42.685Z,9.87
2023-04-15T11:50:08.917Z,10.13
2023-04-15T11:52:35.159Z,10.42
2023-04-15T11:55:01.521Z,10.58
2023-04-15T11:57:27.851Z,9.43
2023-04-15T11:59:54.134Z,9.87
2023-04-15T12:02:20.543Z,10.51
2023-04-15T12:04:46.897Z,9.91
2023-04-15T12:07:13.226Z,10.00
2023-04-15T12:09:39.450Z,9.54
2023-04-15T12:12:05.678Z,9.76
2023-04-15T12:14:31.919Z,10.48
2023-04-15T12:16:58.509Z,9.83
2023-04-15T12:19:24.992Z,9.80
2023-04-15T12:21:51.285Z,9.49
2023-04-15T12:24:17.571Z,9.79
2023-04-15T12:26:43.792Z,9.94
2023-04-15T12:29:10.040Z,9.96
2023-04-15T12:31:36.317Z,10.12
2023-04-15T12:34:02.770Z,9.85
2023-04-15T12:36:29.159Z,9.70
2023-04-15T12:38:56.622Z,9.80
2023-04-15T12:41:23.071Z,9.72
2023-04-15T12:43:49.308Z,9.76
2023-04-15T12:46:15.609Z,9.97
2023-04-15T12:48:41.886Z,10.05
2023-04-15T12:51:08.133Z,9.03
2023-04-15T12:53:34.367Z,9.27
2023-04-15T12:56:00.614Z,10.11
2023-04-15T12:58:26.900Z,9.57
2023-04-15T13:00:53.205Z,9.54
2023-04-15T13:03:19.478Z,10.49
2023-04-15T13:05:45.883Z,10.52
2023-04-15T13:08:12.178Z,10.42
2023-04-15T13:10:38.416Z,10.37
2023-04-15T13:13:04.696Z,10.55
2023-04-15T13:15:31.026Z,10.82
2023-04-15T13:17:57.272Z,10.20
2023-04-15T13:20:23.576Z,10.29
2023-04-15T13:22:49.852Z,9.97
2023-04-15T13:25:16.095Z,10.74
2023-04-15T13:27:42.376Z,10.22
2023-04-15T13:30:08.609Z,10.06
2023-04-15T13:32:34.933Z,9.54
2023-04-15T13:35:01.207Z,9.70
2023-04-15T13:37:27.463Z,10.33
2023-04-15T13:39:53.730Z,9.81
2023-04-15T13:42:20.037Z,9.91
2023-04-15T13:44:46.257Z,9.94
2023-04-15T13:47:12.476Z,10.36
2023-04-15T13:49:38.720Z,10.34
2023-04-15T13:52:04.950Z,9.58
2023-04-15T13:54:37.684Z,9.22
2023-04-15T13:57:04.420Z,8.99
2023-04-15T13:59:30.651Z,9.14
2023-04-15T14:01:56.915Z,9.63
2023-04-15T14:04:23.364Z,9.18
2023-04-15T14:06:49.762Z,9.17
2023-04-15T14:09:16.017Z,9.49
2023-04-15T14:11:42.269Z,9.93
2023-04-15T14:14:08.528Z,9.77
2023-04-15T14:16:35.016Z,9.02
2023-04-15T14:19:01.462Z,8.92
2023-04-15T14:21:27.737Z,9.48
2023-04-15T14:23:53.960Z,9.46
2023-04-15T14:26:20.187Z,8.82
2023-04-15T14:28:46.476Z,8.55
2023-04-15T14:31:12.759Z,8.85
2023-04-15T14:33:39.045Z,9.33
2023-04-15T14:36:05.321Z,9.24
2023-04-15T14:38:31.546Z,9.50
2023-04-15T14:40:57.799Z,9.64
2023-04-15T14:43:24.061Z,9.85
2023-04-15T14:45:50.336Z,9.83
2023-04-15T14:48:16.575Z,9.36
2023-04-15T14:50:42.850Z,9.81
2023-04-15T14:53:09.280Z,10.28
2023-04-15T14:55:35.601Z,9.84
2023-04-15T14:58:01.923Z,9.07
2023-04-15T15:00:28.239Z,9.29
2023-04-15T15:02:54.581Z,9.19
2023-04-15T15:05:21.057Z,9.17
2023-04-15T15:07:47.417Z,8.67
2023-04-15T15:10:13.836Z,9.40
2023-04-15T15:12:40.072Z,9.26
2023-04-15T15:15:15.655Z,9.94
2023-04-15T15:17:46.033Z,10.33
2023-04-15T15:20:12.294Z,9.32
2023-04-15T15:22:38.541Z,9.19
2023-04-15T15:25:04.786Z,9.22
2023-04-15T15:27:31.051Z,8.96
2023-04-15T15:29:57.298Z,8.64
2023-04-15T15:32:23.623Z,8.46
2023-04-15T15:34:49.935Z,8.78
2023-04-15T15:37:16.276Z,8.68
2023-04-15T15:39:42.528Z,9.17
2023-04-15T15:42:08.785Z,9.19
2023-04-15T15:44:35.023Z,9.14
2023-04-15T15:47:01.360Z,9.07
2023-04-15T15:49:27.796Z,8.92
2023-04-15T15:51:54.071Z,8.76
2023-04-15T15:54:20.327Z,8.67
2023-04-15T15:56:46.566Z,9.09
2023-04-15T15:59:12.857Z,9.11
2023-04-15T16:01:39.182Z,8.39
2023-04-15T16:04:05.608Z,8.42
2023-04-15T16:06:34.442Z,7.64
2023-04-15T16:09:01.562Z,8.24
2023-04-15T16:11:27.937Z,7.80
2023-04-15T16:13:54.214Z,8.36
2023-04-15T16:16:20.544Z,9.07
2023-04-15T16:18:46.813Z,9.74
2023-04-15T16:21:13.090Z,10.03
2023-04-15T16:23:39.821Z,9.89
2023-04-15T16:26:06.107Z,10.18
2023-04-15T16:28:32.340Z,9.97
2023-04-15T16:30:58.632Z,10.02
2023-04-15T16:33:24.842Z,9.44
2023-04-15T16:35:51.107Z,9.33
2023-04-15T16:38:17.488Z,9.76
2023-04-15T16:40:43.717Z,9.02
2023-04-15T16:43:09.957Z,9.14
2023-04-15T16:45:36.281Z,9.22
2023-04-15T16:48:02.570Z,9.77
2023-04-15T16:50:28.897Z,8.98
2023-04-15T16:52:55.173Z,9.11
2023-04-15T16:55:21.421Z,9.52
2023-04-15T16:58:01.868Z,9.50
2023-04-15T17:00:30.083Z,9.15
2023-04-15T17:02:56.531Z,9.56
2023-04-15T17:05:22.942Z,9.54
2023-04-15T17:07:49.196Z,9.30
2023-04-15T17:10:15.456Z,8.96
2023-04-15T17:12:41.697Z,8.98
2023-04-15T17:15:07.961Z,8.46
2023-04-15T17:17:34.233Z,8.13
2023-04-15T17:20:00.510Z,8.15
2023-04-15T17:22:26.772Z,7.67
2023-04-15T17:24:53.039Z,7.80
2023-04-15T17:27:19.299Z,8.10
2023-04-15T17:29:45.554Z,8.50
2023-04-15T17:32:11.852Z,8.90
2023-04-15T17:34:49.696Z,8.46
2023-04-15T17:37:17.500Z,8.63
2023-04-15T17:39:43.865Z,8.29
2023-04-15T17:42:10.122Z,7.87
2023-04-15T17:44:36.429Z,7.79
2023-04-15T17:47:02.677Z,8.17
2023-04-15T17:49:28.932Z,8.26
2023-04-15T17:51:55.212Z,8.70
2023-04-15T17:54:21.455Z,8.15
2023-04-15T17:56:47.695Z,8.34
2023-04-15T17:59:13.941Z,8.84
2023-04-15T18:01:40.254Z,8.55
2023-04-15T18:04:06.855Z,8.43
2023-04-15T18:06:33.449Z,8.48
2023-04-15T18:08:59.698Z,8.01
2023-04-15T18:11:25.942Z,7.92
2023-04-15T18:13:52.185Z,8.26
2023-04-15T18:16:18.497Z,8.32
2023-04-15T18:18:44.824Z,8.46
2023-04-15T18:21:13.433Z,8.22
2023-04-15T18:23:40.007Z,8.38
2023-04-15T18:26:06.248Z,8.61
2023-04-15T18:28:32.536Z,8.34
2023-04-15T18:30:58.851Z,7.48
2023-04-15T18:33:25.086Z,7.36
2023-04-15T18:35:51.349Z,7.91
2023-04-15T18:38:17.650Z,7.85
2023-04-15T18:40:43.894Z,7.84
2023-04-15T18:43:10.173Z,7.42
2023-04-15T18:45:36.474Z,7.32
2023-04-15T18:48:02.784Z,6.94
2023-04-15T18:50:29.128Z,7.41
2023-04-15T18:52:55.369Z,7.90
2023-04-15T18:55:21.625Z,8.30
2023-04-15T18:57:48.109Z,8.47
2023-04-15T19:00:14.965Z,8.45
2023-04-15T19:02:41.261Z,8.56
2023-04-15T19:05:07.548Z,8.59
2023-04-15T19:07:33.835Z,8.56
2023-04-15T19:10:00.139Z,6.99
2023-04-15T19:12:26.385Z,7.71
2023-04-15T19:14:52.694Z,7.84
2023-04-15T19:17:18.978Z,7.91
2023-04-15T19:19:45.202Z,7.46
2023-04-15T19:22:11.444Z,6.72
2023-04-15T19:24:37.726Z,6.91
2023-04-15T19:27:04.032Z,7.17
2023-04-15T19:29:30.279Z,7.32
2023-04-15T19:31:56.516Z,7.14
2023-04-15T19:34:22.813Z,6.87
2023-04-15T19:36:49.097Z,6.63
2023-04-15T19:39:15.339Z,7.04
2023-04-15T19:41:41.583Z,7.36
2023-04-15T19:44:07.861Z,6.70
2023-04-15T19:46:34.197Z,6.75
2023-04-15T19:49:00.541Z,7.12
2023-04-15T19:51:26.759Z,7.23
2023-04-15T19:53:54.032Z,6.66
2023-04-15T19:56:20.315Z,6.47
2023-04-15T19:58:46.562Z,6.46
2023-04-15T20:01:12.820Z,6.77
2023-04-15T20:03:39.203Z,7.31
2023-04-15T20:06:05.586Z,7.34
2023-04-15T20:08:31.851Z,7.36
2023-04-15T20:10:58.073Z,6.48
2023-04-15T20:13:24.353Z,5.66
2023-04-15T20:15:50.603Z,5.98
2023-04-15T20:18:16.942Z,6.27
2023-04-15T20:20:43.185Z,6.60
2023-04-15T20:23:09.404Z,6.89
2023-04-15T20:25:35.659Z,6.20
2023-04-15T20:28:01.958Z,6.66
2023-04-15T20:30:28.187Z,6.93
2023-04-15T20:32:54.494Z,5.88
2023-04-15T20:35:20.816Z,5.91
2023-04-15T20:37:47.056Z,6.31
2023-04-15T20:40:13.312Z,6.55
2023-04-15T20:42:39.545Z,6.88
2023-04-15T20:45:05.763Z,6.76
2023-04-15T20:47:32.038Z,6.90
2023-04-15T20:49:58.344Z,7.20
2023-04-15T20:52:24.624Z,6.28
2023-04-15T20:54:50.864Z,6.55
2023-04-15T20:57:17.125Z,6.83
2023-04-15T20:59:43.409Z,7.21
2023-04-15T21:02:09.857Z,7.39
2023-04-15T21:04:36.242Z,7.09
2023-04-15T21:07:02.505Z,6.98
2023-04-15T21:09:28.749Z,6.17
2023-04-15T21:12:01.281Z,6.40
2023-04-15T21:14:28.090Z,6.56
2023-04-15T21:16:54.336Z,6.67
2023-04-15T21:19:20.624Z,6.68
2023-04-15T21:21:46.875Z,6.84
2023-04-15T21:24:13.130Z,7.13
2023-04-15T21:26:39.352Z,6.67
2023-04-15T21:29:07.864Z,7.32
2023-04-15T21:31:35.946Z,6.87
2023-04-15T21:34:02.188Z,7.18
2023-04-15T21:36:28.447Z,7.38
2023-04-15T21:38:54.704Z,7.15
2023-04-15T21:41:20.987Z,6.53
2023-04-15T21:43:47.288Z,6.38
2023-04-15T21:46:23.229Z,6.00
2023-04-15T21:48:51.410Z,6.89
2023-04-15T21:51:17.674Z,7.11
2023-04-15T21:53:43.915Z,6.84
2023-04-15T21:56:10.214Z,7.11
2023-04-15T21:58:36.450Z,6.74
2023-04-15T22:01:02.790Z,6.08
2023-04-15T22:03:29.178Z,5.85
2023-04-15T22:05:57.299Z,5.73
2023-04-15T22:08:23.591Z,6.33
2023-04-15T22:10:49.828Z,6.61
2023-04-15T22:13:16.094Z,6.63
2023-04-15T22:15:42.385Z,6.44
2023-04-15T22:18:08.610Z,6.78
2023-04-15T22:20:34.883Z,6.28
2023-04-15T22:23:01.124Z,6.31
2023-04-15T22:25:27.351Z,6.33
2023-04-15T22:27:53.580Z,6.97
2023-04-15T22:30:19.821Z,7.20
2023-04-15T22:32:46.103Z,6.75
2023-04-15T22:35:12.432Z,6.88
2023-04-15T22:37:38.672Z,6.28
2023-04-15T22:40:04.936Z,6.53
2023-04-15T22:42:31.213Z,6.90
2023-04-15T22:44:57.468Z,7.16
2023-04-15T22:47:23.782Z,7.31
2023-04-15T22:49:50.056Z,7.22
2023-04-15T22:52:29.396Z,6.83
2023-04-15T22:54:56.580Z,6.83
2023-04-15T22:57:22.855Z,7.31
2023-04-15T22:59:49.125Z,7.30
2023-04-15T23:02:15.485Z,7.04
2023-04-15T23:04:41.977Z,7.46
2023-04-15T23:07:08.286Z,7.42
2023-04-15T23:09:34.532Z,7.41
2023-04-15T23:12:00.779Z,7.21
2023-04-15T23:14:27.011Z,7.48
2023-04-15T23:16:53.264Z,7.45
2023-04-15T23:19:19.502Z,7.72
2023-04-15T23:21:45.792Z,7.78
2023-04-15T23:24:12.208Z,7.70
2023-04-15T23:26:38.443Z,7.75
2023-04-15T23:29:04.743Z,7.87
2023-04-15T23:31:31.013Z,7.92
2023-04-15T23:33:57.301Z,7.90
2023-04-15T23:36:23.563Z,7.94
2023-04-15T23:38:49.774Z,7.64
2023-04-15T23:41:16.020Z,7.62
2023-04-15T23:43:42.287Z,7.16
2023-04-15T23:46:08.548Z,6.79
2023-04-15T23:48:34.787Z,6.46
2023-04-15T23:51:01.038Z,6.21
2023-04-15T23:53:27.269Z,6.29
2023-04-15T23:55:53.503Z,6.65
2023-04-15T23:58:19.773Z,7.40
